createdAt,value
2019-01-08T00:02:23.619Z,8.80
2019-01-08T00:04:54.962Z,8.53
2019-01-08T00:07:26.377Z,8.60
2019-01-08T00:09:57.832Z,8.25
2019-01-08T00:12:29.284Z,8.78
2019-01-08T00:15:00.762Z,8.63
2019-01-08T00:17:32.167Z,8.20
2019-01-08T00:20:03.460Z,7.47
2019-01-08T00:22:34.792Z,7.87
2019-01-08T00:25:06.253Z,7.95
2019-01-08T00:27:37.730Z,7.95
2019-01-08T00:30:09.229Z,7.92
2019-01-08T00:32:40.600Z,8.23
2019-01-08T00:35:11.948Z,7.60
2019-01-08T00:37:44.289Z,7.85
2019-01-08T00:40:16.044Z,7.08
2019-01-08T00:42:47.595Z,7.58
2019-01-08T00:45:19.119Z,7.55
2019-01-08T00:47:50.555Z,7.97
2019-01-08T00:50:22.962Z,7.62
2019-01-08T00:52:54.393Z,7.22
2019-01-08T00:55:25.828Z,6.83
2019-01-08T00:57:57.163Z,6.42
2019-01-08T01:00:28.489Z,6.55
2019-01-08T01:02:59.875Z,6.75
2019-01-08T01:05:31.293Z,6.83
2019-01-08T01:08:02.736Z,7.33
2019-01-08T01:10:34.118Z,6.50
2019-01-08T01:13:05.448Z,7.17
2019-01-08T01:15:37.108Z,6.83
2019-01-08T01:18:08.534Z,6.15
2019-01-08T01:20:39.951Z,7.35
2019-01-08T01:23:11.298Z,6.80
2019-01-08T01:25:42.759Z,6.10
2019-01-08T01:28:14.177Z,5.42
2019-01-08T01:30:45.869Z,6.58
2019-01-08T01:33:17.334Z,7.25
2019-01-08T01:35:48.793Z,6.60
2019-01-08T01:38:20.229Z,6.62
2019-01-08T01:40:51.680Z,6.85
2019-01-08T01:43:23.153Z,6.50
2019-01-08T01:45:54.619Z,6.83
2019-01-08T01:48:26.020Z,5.97
2019-01-08T01:50:57.432Z,5.60
2019-01-08T01:53:28.760Z,6.22
2019-01-08T01:56:00.190Z,6.08
2019-01-08T01:58:31.553Z,6.15
2019-01-08T02:01:02.971Z,5.90
2019-01-08T02:03:34.360Z,5.95
2019-01-08T02:06:05.661Z,5.30
2019-01-08T02:08:37.230Z,5.55
2019-01-08T02:11:08.657Z,5.33
2019-01-08T02:13:40.135Z,6.85
2019-01-08T02:16:11.902Z,5.80
2019-01-08T02:18:43.406Z,5.95
2019-01-08T02:21:14.801Z,5.70
2019-01-08T02:23:46.323Z,6.00
2019-01-08T02:26:17.650Z,4.78
2019-01-08T02:28:49.275Z,5.80
2019-01-08T02:31:20.675Z,5.30
2019-01-08T02:33:52.011Z,5.70
2019-01-08T02:36:23.437Z,5.40
2019-01-08T02:38:54.846Z,5.12
2019-01-08T02:41:26.247Z,5.40
2019-01-08T02:43:57.838Z,5.08
2019-01-08T02:46:29.312Z,4.55
2019-01-08T02:49:01.027Z,4.45
2019-01-08T02:51:33.844Z,4.15
2019-01-08T02:54:06.180Z,4.30
2019-01-08T02:56:37.620Z,4.40
2019-01-08T02:59:09.023Z,5.42
2019-01-08T03:01:40.420Z,4.03
2019-01-08T03:04:11.824Z,4.65
2019-01-08T03:06:43.202Z,3.22
2019-01-08T03:09:14.773Z,3.40
2019-01-08T03:11:46.195Z,2.62
2019-01-08T03:14:17.519Z,2.90
2019-01-08T03:16:48.907Z,2.70
2019-01-08T03:19:20.376Z,2.83
2019-01-08T03:21:52.071Z,2.83
2019-01-08T03:24:24.515Z,3.20
2019-01-08T03:26:55.926Z,2.65
2019-01-08T03:29:33.624Z,2.12
2019-01-08T03:32:05.685Z,2.50
2019-01-08T03:34:37.933Z,2.52
2019-01-08T03:37:09.476Z,2.25
2019-01-08T03:39:40.844Z,2.20
2019-01-08T03:42:12.255Z,2.27
2019-01-08T03:44:43.554Z,1.98
2019-01-08T03:47:14.929Z,1.75
2019-01-08T03:49:46.360Z,1.70
2019-01-08T03:52:17.808Z,2.35
2019-01-08T03:54:49.121Z,1.50
2019-01-08T03:57:20.508Z,1.67
2019-01-08T03:59:51.949Z,1.72
2019-01-08T04:02:23.360Z,1.85
2019-01-08T04:04:54.903Z,1.70
2019-01-08T04:07:26.481Z,1.40
2019-01-08T04:10:00.155Z,1.55
2019-01-08T04:12:33.246Z,1.40
2019-01-08T04:15:05.066Z,1.90
2019-01-08T04:17:36.624Z,1.35
2019-01-08T04:20:08.344Z,2.10
2019-01-08T04:22:40.040Z,1.40
2019-01-08T04:25:12.109Z,1.50
2019-01-08T04:27:43.484Z,1.40
2019-01-08T04:30:15.109Z,1.30
2019-01-08T04:32:46.657Z,1.30
2019-01-08T04:35:18.354Z,1.42
2019-01-08T04:37:50.275Z,1.40
2019-01-08T04:40:22.543Z,1.40
2019-01-08T04:42:54.079Z,1.27
2019-01-08T04:45:25.523Z,1.20
2019-01-08T04:47:57.019Z,1.32
2019-01-08T04:50:28.452Z,1.60
2019-01-08T04:52:59.803Z,1.60
2019-01-08T04:55:31.291Z,1.40
2019-01-08T04:58:02.991Z,1.37
2019-01-08T05:00:34.426Z,1.45
2019-01-08T05:03:05.744Z,1.32
2019-01-08T05:05:37.186Z,1.40
2019-01-08T05:08:08.565Z,1.40
2019-01-08T05:10:39.921Z,1.57
2019-01-08T05:13:11.428Z,1.30
2019-01-08T05:15:42.857Z,1.40
2019-01-08T05:18:14.268Z,2.50
2019-01-08T05:20:45.614Z,1.73
2019-01-08T05:23:16.921Z,1.57
2019-01-08T05:25:48.398Z,1.40
2019-01-08T05:28:19.901Z,1.47
2019-01-08T05:30:51.333Z,1.65
2019-01-08T05:33:22.663Z,1.30
2019-01-08T05:35:54.105Z,1.80
2019-01-08T05:38:25.428Z,2.00
2019-01-08T05:40:56.800Z,2.10
2019-01-08T05:43:28.224Z,1.40
2019-01-08T05:45:59.872Z,1.50
2019-01-08T05:48:31.190Z,1.47
2019-01-08T05:51:02.626Z,1.90
2019-01-08T05:53:33.982Z,1.65
2019-01-08T05:56:05.323Z,1.62
2019-01-08T05:58:36.644Z,1.62
2019-01-08T06:01:08.039Z,1.52
2019-01-08T06:03:39.473Z,2.00
2019-01-08T06:06:12.516Z,2.30
2019-01-08T06:08:43.936Z,1.75
2019-01-08T06:11:15.340Z,1.55
2019-01-08T06:13:46.769Z,1.52
2019-01-08T06:16:17.978Z,1.60
2019-01-08T06:18:49.352Z,1.07
2019-01-08T06:21:20.785Z,1.70
2019-01-08T06:23:52.093Z,1.55
2019-01-08T06:26:23.457Z,1.70
2019-01-08T06:28:54.776Z,1.50
2019-01-08T06:31:26.134Z,1.25
2019-01-08T06:33:57.446Z,1.32
2019-01-08T06:36:28.886Z,1.30
2019-01-08T06:39:00.323Z,1.60
2019-01-08T06:41:32.335Z,1.42
2019-01-08T06:44:03.737Z,1.40
2019-01-08T06:46:42.760Z,1.40
2019-01-08T06:49:08.265Z,1.60
2019-01-08T06:51:39.611Z,1.65
2019-01-08T06:54:10.828Z,1.60
2019-01-08T06:56:42.130Z,1.55
2019-01-08T06:59:13.468Z,1.65
2019-01-08T07:01:46.829Z,1.60
2019-01-08T07:04:18.437Z,1.90
2019-01-08T07:06:50.089Z,2.37
2019-01-08T07:09:21.419Z,2.60
2019-01-08T07:11:53.087Z,2.00
2019-01-08T07:14:24.513Z,2.30
2019-01-08T07:16:55.958Z,2.50
2019-01-08T07:19:27.479Z,2.77
2019-01-08T07:21:58.895Z,2.98
2019-01-08T07:24:30.374Z,2.52
2019-01-08T07:27:01.856Z,2.77
2019-01-08T07:29:33.581Z,2.70
2019-01-08T07:32:05.193Z,3.05
2019-01-08T07:34:36.513Z,3.45
2019-01-08T07:37:07.938Z,3.60
2019-01-08T07:39:39.386Z,3.75
2019-01-08T07:42:10.683Z,3.45
2019-01-08T07:44:42.113Z,4.40
2019-01-08T07:47:13.523Z,4.00
2019-01-08T07:49:44.952Z,4.80
2019-01-08T07:52:16.256Z,4.28
2019-01-08T07:54:47.668Z,4.03
2019-01-08T07:57:19.105Z,4.05
2019-01-08T07:59:51.404Z,4.00
2019-01-08T08:02:22.821Z,4.05
2019-01-08T08:04:54.254Z,4.47
2019-01-08T08:07:25.643Z,4.05
2019-01-08T08:09:57.134Z,4.03
2019-01-08T08:12:28.475Z,4.40
2019-01-08T08:14:59.925Z,4.20
2019-01-08T08:17:31.356Z,4.00
2019-01-08T08:20:02.763Z,4.12
2019-01-08T08:22:34.220Z,3.75
2019-01-08T08:25:06.286Z,4.55
2019-01-08T08:27:37.606Z,4.53
2019-01-08T08:30:09.914Z,3.90
2019-01-08T08:32:41.314Z,4.40
2019-01-08T08:35:12.747Z,4.40
2019-01-08T08:37:44.169Z,3.20
2019-01-08T08:40:15.470Z,2.42
2019-01-08T08:42:46.878Z,2.65
2019-01-08T08:45:19.868Z,2.20
2019-01-08T08:47:51.346Z,2.08
2019-01-08T08:50:22.802Z,2.47
2019-01-08T08:52:55.249Z,2.20
2019-01-08T08:55:26.679Z,2.35
2019-01-08T08:57:58.091Z,2.20
2019-01-08T09:00:29.508Z,2.40
2019-01-08T09:03:00.961Z,2.22
2019-01-08T09:05:32.327Z,2.20
2019-01-08T09:08:04.697Z,1.87
2019-01-08T09:10:36.067Z,2.30
2019-01-08T09:13:07.488Z,2.10
2019-01-08T09:15:38.793Z,2.05
2019-01-08T09:18:10.180Z,2.30
2019-01-08T09:20:41.579Z,2.35
2019-01-08T09:23:13.003Z,2.55
2019-01-08T09:25:44.409Z,2.90
2019-01-08T09:28:15.721Z,2.37
2019-01-08T09:30:47.132Z,2.95
2019-01-08T09:33:18.524Z,2.65
2019-01-08T09:35:50.817Z,3.08
2019-01-08T09:38:22.238Z,2.80
2019-01-08T09:40:53.569Z,2.95
2019-01-08T09:43:24.927Z,2.95
2019-01-08T09:45:56.270Z,4.03
2019-01-08T09:48:27.613Z,2.92
2019-01-08T09:50:59.051Z,3.85
2019-01-08T09:53:30.340Z,3.45
2019-01-08T09:56:01.777Z,3.50
2019-01-08T09:58:33.170Z,3.37
2019-01-08T10:01:04.644Z,2.85
2019-01-08T10:03:36.387Z,3.20
2019-01-08T10:06:07.759Z,3.60
2019-01-08T10:08:39.363Z,3.45
2019-01-08T10:11:10.803Z,4.67
2019-01-08T10:13:42.037Z,2.92
2019-01-08T10:16:13.480Z,3.40
2019-01-08T10:18:47.664Z,3.60
2019-01-08T10:21:19.065Z,3.00
2019-01-08T10:23:50.765Z,3.22
2019-01-08T10:26:22.171Z,3.20
2019-01-08T10:28:53.597Z,3.20
2019-01-08T10:31:32.466Z,3.92
2019-01-08T10:33:58.095Z,2.95
2019-01-08T10:36:29.467Z,3.52
2019-01-08T10:39:00.748Z,3.45
2019-01-08T10:41:33.804Z,3.95
2019-01-08T10:44:05.214Z,3.20
2019-01-08T10:46:37.525Z,3.25
2019-01-08T10:49:09.221Z,3.95
2019-01-08T10:51:40.482Z,2.98
2019-01-08T10:54:13.223Z,3.72
2019-01-08T10:56:44.732Z,4.75
2019-01-08T10:59:16.101Z,3.85
2019-01-08T11:01:47.388Z,3.67
2019-01-08T11:04:18.803Z,3.25
2019-01-08T11:06:50.171Z,3.85
2019-01-08T11:09:21.598Z,3.37
2019-01-08T11:11:52.900Z,2.80
2019-01-08T11:14:24.309Z,4.15
2019-01-08T11:16:55.723Z,4.05
2019-01-08T11:19:27.288Z,3.25
2019-01-08T11:21:59.937Z,3.95
2019-01-08T11:24:31.493Z,3.30
2019-01-08T11:27:03.083Z,3.00
2019-01-08T11:29:34.674Z,3.75
2019-01-08T11:32:06.355Z,3.60
2019-01-08T11:34:39.850Z,3.42
2019-01-08T11:37:11.183Z,3.05
2019-01-08T11:39:42.626Z,3.60
2019-01-08T11:42:14.015Z,3.55
2019-01-08T11:44:45.384Z,3.75
2019-01-08T11:47:16.843Z,4.20
2019-01-08T11:49:48.169Z,2.90
2019-01-08T11:52:19.586Z,3.67
2019-01-08T11:54:50.920Z,2.80
2019-01-08T11:57:22.384Z,2.80
2019-01-08T11:59:53.862Z,2.90
2019-01-08T12:02:25.286Z,2.60
2019-01-08T12:04:56.683Z,3.20
2019-01-08T12:07:31.280Z,2.75
2019-01-08T12:10:01.845Z,3.08
2019-01-08T12:12:33.234Z,3.10
2019-01-08T12:15:05.842Z,3.25
2019-01-08T12:17:37.209Z,2.85
2019-01-08T12:20:11.644Z,2.77
2019-01-08T12:22:43.194Z,2.80
2019-01-08T12:25:14.519Z,2.55
2019-01-08T12:27:45.949Z,3.10
2019-01-08T12:30:17.550Z,2.50
2019-01-08T12:32:49.101Z,2.70
2019-01-08T12:35:20.920Z,2.37
2019-01-08T12:37:52.534Z,2.50
2019-01-08T12:40:23.906Z,2.50
2019-01-08T12:42:55.347Z,2.77
2019-01-08T12:45:26.752Z,2.47
2019-01-08T12:47:58.159Z,2.40
2019-01-08T12:50:29.552Z,2.80
2019-01-08T12:53:01.159Z,2.80
2019-01-08T12:55:32.614Z,2.27
2019-01-08T12:58:04.368Z,2.60
2019-01-08T13:00:35.839Z,3.27
2019-01-08T13:03:13.430Z,3.45
2019-01-08T13:05:44.971Z,4.00
2019-01-08T13:08:16.780Z,2.47
2019-01-08T13:10:48.365Z,2.72
2019-01-08T13:13:19.743Z,2.55
2019-01-08T13:15:51.167Z,2.70
2019-01-08T13:18:22.484Z,2.83
2019-01-08T13:20:53.854Z,2.67
2019-01-08T13:23:25.183Z,3.00
2019-01-08T13:25:56.668Z,3.00
2019-01-08T13:28:28.111Z,3.00
2019-01-08T13:30:59.449Z,3.25
2019-01-08T13:33:30.956Z,3.92
2019-01-08T13:36:02.313Z,3.20
2019-01-08T13:38:33.885Z,3.45
2019-01-08T13:41:05.482Z,3.08
2019-01-08T13:43:40.126Z,2.98
2019-01-08T13:46:11.555Z,3.00
2019-01-08T13:48:43.134Z,3.62
2019-01-08T13:51:14.534Z,3.50
2019-01-08T13:54:05.321Z,3.80
2019-01-08T13:56:36.793Z,3.10
2019-01-08T13:59:08.391Z,3.02
2019-01-08T14:01:40.042Z,3.70
2019-01-08T14:04:11.474Z,3.17
2019-01-08T14:06:42.979Z,3.40
2019-01-08T14:09:14.586Z,4.20
2019-01-08T14:11:48.960Z,3.07
2019-01-08T14:14:20.439Z,3.58
2019-01-08T14:16:53.859Z,3.40
2019-01-08T14:19:25.393Z,2.90
2019-01-08T14:21:56.910Z,3.27
2019-01-08T14:24:28.594Z,3.52
2019-01-08T14:27:00.275Z,3.37
2019-01-08T14:29:31.800Z,2.75
2019-01-08T14:32:03.167Z,3.30
2019-01-08T14:34:34.543Z,3.12
2019-01-08T14:37:06.009Z,2.35
2019-01-08T14:39:37.448Z,2.70
2019-01-08T14:42:08.929Z,3.65
2019-01-08T14:44:40.301Z,3.27
2019-01-08T14:47:11.880Z,2.40
2019-01-08T14:49:43.318Z,2.90
2019-01-08T14:52:14.767Z,3.53
2019-01-08T14:54:46.273Z,3.50
2019-01-08T14:57:18.035Z,3.45
2019-01-08T14:59:49.434Z,3.45
2019-01-08T15:02:20.907Z,2.60
2019-01-08T15:04:52.248Z,2.70
2019-01-08T15:07:23.911Z,2.50
2019-01-08T15:09:55.313Z,2.75
2019-01-08T15:12:26.732Z,2.85
2019-01-08T15:14:58.100Z,3.67
2019-01-08T15:17:29.719Z,2.60
2019-01-08T15:20:01.358Z,3.00
2019-01-08T15:22:32.753Z,3.58
2019-01-08T15:25:04.382Z,2.90
2019-01-08T15:27:35.813Z,3.50
2019-01-08T15:30:09.672Z,2.90
2019-01-08T15:32:42.110Z,4.30
2019-01-08T15:35:13.506Z,3.02
2019-01-08T15:37:44.886Z,3.95
2019-01-08T15:40:16.311Z,3.67
2019-01-08T15:42:47.822Z,3.57
2019-01-08T15:45:20.197Z,3.00
2019-01-08T15:47:51.573Z,2.98
2019-01-08T15:50:22.965Z,3.55
2019-01-08T15:52:54.259Z,3.53
2019-01-08T15:55:25.718Z,3.70
2019-01-08T15:57:57.141Z,3.85
2019-01-08T16:00:29.757Z,3.50
2019-01-08T16:03:07.298Z,3.10
2019-01-08T16:05:34.303Z,3.10
2019-01-08T16:08:05.705Z,3.25
2019-01-08T16:10:37.113Z,2.40
2019-01-08T16:13:08.542Z,3.20
2019-01-08T16:15:40.107Z,3.90
2019-01-08T16:18:11.552Z,3.37
2019-01-08T16:20:43.231Z,3.00
2019-01-08T16:23:14.847Z,3.10
2019-01-08T16:25:49.346Z,3.10
2019-01-08T16:28:24.194Z,2.87
2019-01-08T16:30:55.559Z,2.70
2019-01-08T16:33:26.976Z,2.90
2019-01-08T16:35:58.263Z,3.17
2019-01-08T16:38:29.712Z,2.70
2019-01-08T16:41:01.015Z,3.00
2019-01-08T16:43:32.433Z,2.60
2019-01-08T16:46:04.099Z,3.70
2019-01-08T16:48:35.512Z,2.47
2019-01-08T16:51:07.015Z,3.05
2019-01-08T16:53:41.547Z,3.80
2019-01-08T16:56:17.408Z,3.15
2019-01-08T16:58:48.762Z,3.50
2019-01-08T17:01:20.187Z,3.72
2019-01-08T17:03:51.650Z,4.07
2019-01-08T17:06:23.096Z,4.28
2019-01-08T17:08:54.407Z,3.70
2019-01-08T17:11:25.788Z,3.40
2019-01-08T17:13:57.219Z,3.20
2019-01-08T17:16:28.660Z,3.87
2019-01-08T17:19:01.694Z,3.30
2019-01-08T17:21:33.182Z,4.20
2019-01-08T17:24:04.999Z,3.05
2019-01-08T17:26:36.407Z,3.40
2019-01-08T17:29:07.805Z,3.22
2019-01-08T17:31:39.255Z,3.37
2019-01-08T17:34:11.618Z,2.83
2019-01-08T17:36:43.096Z,4.12
2019-01-08T17:39:14.525Z,3.00
2019-01-08T17:41:46.067Z,2.83
2019-01-08T17:44:18.576Z,2.80
2019-01-08T17:46:50.018Z,3.12
2019-01-08T17:49:21.807Z,3.20
2019-01-08T17:51:53.314Z,4.00
2019-01-08T17:54:24.803Z,4.05
2019-01-08T17:56:56.360Z,3.95
2019-01-08T17:59:27.757Z,3.58
2019-01-08T18:02:19.915Z,3.90
2019-01-08T18:04:51.375Z,4.92
2019-01-08T18:07:22.705Z,3.65
2019-01-08T18:09:54.205Z,3.10
2019-01-08T18:12:25.607Z,3.70
2019-01-08T18:15:02.489Z,3.98
2019-01-08T18:17:33.972Z,3.45
2019-01-08T18:20:05.763Z,4.15
2019-01-08T18:22:37.265Z,4.17
2019-01-08T18:25:08.848Z,4.15
2019-01-08T18:27:41.365Z,3.40
2019-01-08T18:30:12.766Z,3.17
2019-01-08T18:32:48.781Z,2.50
2019-01-08T18:35:20.335Z,3.25
2019-01-08T18:37:54.394Z,3.52
2019-01-08T18:40:28.371Z,3.70
2019-01-08T18:43:01.614Z,4.35
2019-01-08T18:45:33.362Z,3.35
2019-01-08T18:48:05.660Z,3.70
2019-01-08T18:50:37.114Z,3.35
2019-01-08T18:53:08.581Z,2.92
2019-01-08T18:55:40.181Z,3.08
2019-01-08T18:58:16.053Z,3.35
2019-01-08T19:00:53.198Z,2.87
2019-01-08T19:03:32.215Z,3.42
2019-01-08T19:06:11.886Z,3.17
2019-01-08T19:09:34.692Z,3.40
2019-01-08T19:12:13.827Z,3.40
2019-01-08T19:14:51.162Z,3.25
2019-01-08T19:17:27.105Z,3.47
2019-01-08T19:20:15.796Z,3.40
2019-01-08T19:22:54.720Z,3.30
2019-01-08T19:25:30.637Z,3.50
2019-01-08T19:28:10.892Z,3.22
2019-01-08T19:30:45.887Z,3.85
2019-01-08T19:33:25.368Z,3.87
2019-01-08T19:36:01.007Z,3.05
2019-01-08T19:38:46.680Z,3.58
2019-01-08T19:41:19.693Z,3.20
2019-01-08T19:43:51.144Z,3.05
2019-01-08T19:46:22.632Z,3.10
2019-01-08T19:49:01.806Z,3.30
2019-01-08T19:51:45.024Z,3.70
2019-01-08T19:54:43.349Z,2.83
2019-01-08T19:57:31.179Z,3.60
2019-01-08T20:00:24.755Z,4.03
2019-01-08T20:02:58.077Z,4.03
2019-01-08T20:05:35.349Z,2.95
2019-01-08T20:08:15.134Z,3.45
2019-01-08T20:10:50.991Z,3.02
2019-01-08T20:13:28.461Z,3.37
2019-01-08T20:16:08.722Z,2.77
2019-01-08T20:18:45.272Z,2.52
2019-01-08T20:21:21.257Z,2.75
2019-01-08T20:24:06.235Z,3.02
2019-01-08T20:26:35.920Z,2.70
2019-01-08T20:29:07.522Z,3.23
2019-01-08T20:31:38.945Z,3.10
2019-01-08T20:34:10.379Z,3.17
2019-01-08T20:36:41.815Z,2.90
2019-01-08T20:39:14.265Z,2.72
2019-01-08T20:41:45.744Z,2.83
2019-01-08T20:44:17.151Z,3.37
2019-01-08T20:46:48.663Z,3.02
2019-01-08T20:49:19.912Z,2.75
2019-01-08T20:51:51.337Z,2.90
2019-01-08T20:54:22.662Z,2.55
2019-01-08T20:56:54.317Z,2.45
2019-01-08T20:59:25.892Z,2.33
2019-01-08T21:01:57.349Z,2.92
2019-01-08T21:04:35.308Z,3.22
2019-01-08T21:07:02.025Z,2.60
2019-01-08T21:09:33.648Z,2.17
2019-01-08T21:12:04.970Z,2.52
2019-01-08T21:14:36.485Z,2.60
2019-01-08T21:17:07.772Z,2.87
2019-01-08T21:19:39.144Z,2.30
2019-01-08T21:22:10.551Z,2.20
2019-01-08T21:24:42.015Z,2.75
2019-01-08T21:27:13.323Z,2.40
2019-01-08T21:29:44.735Z,3.10
2019-01-08T21:32:16.134Z,2.70
2019-01-08T21:34:47.881Z,2.60
2019-01-08T21:37:19.321Z,3.35
2019-01-08T21:39:50.706Z,3.60
2019-01-08T21:42:22.208Z,2.80
2019-01-08T21:44:53.648Z,2.87
2019-01-08T21:47:25.104Z,2.60
2019-01-08T21:49:56.660Z,3.20
2019-01-08T21:52:28.576Z,2.30
2019-01-08T21:54:59.965Z,2.30
2019-01-08T21:57:31.402Z,2.37
2019-01-08T22:00:03.088Z,2.40
2019-01-08T22:02:36.072Z,2.52
2019-01-08T22:05:07.572Z,2.47
2019-01-08T22:07:38.957Z,2.65
2019-01-08T22:10:10.320Z,1.85
2019-01-08T22:12:41.942Z,2.30
2019-01-08T22:15:13.353Z,3.20
2019-01-08T22:17:44.786Z,3.30
2019-01-08T22:20:16.329Z,2.77
2019-01-08T22:22:52.558Z,2.85
2019-01-08T22:25:20.947Z,2.47
2019-01-08T22:27:52.227Z,2.77
2019-01-08T22:30:23.552Z,2.42
2019-01-08T22:32:55.198Z,2.60
2019-01-08T22:35:26.514Z,2.70
2019-01-08T22:37:58.005Z,2.62
2019-01-08T22:40:29.427Z,2.40
2019-01-08T22:43:00.865Z,2.65
2019-01-08T22:45:32.202Z,2.52
2019-01-08T22:48:03.572Z,3.12
2019-01-08T22:50:35.017Z,3.05
2019-01-08T22:53:07.143Z,2.42
2019-01-08T22:55:38.561Z,3.00
2019-01-08T22:58:10.015Z,2.70
2019-01-08T23:01:00.243Z,2.35
2019-01-08T23:03:32.228Z,2.83
2019-01-08T23:06:04.052Z,2.70
2019-01-08T23:08:36.435Z,2.62
2019-01-08T23:11:07.833Z,2.10
2019-01-08T23:13:39.325Z,2.58
2019-01-08T23:16:10.589Z,2.70
2019-01-08T23:18:43.187Z,2.60
2019-01-08T23:21:14.544Z,2.80
2019-01-08T23:23:46.252Z,2.62
2019-01-08T23:26:17.793Z,2.42
2019-01-08T23:28:49.109Z,2.80
2019-01-08T23:31:20.535Z,2.50
2019-01-08T23:33:51.977Z,2.30
2019-01-08T23:36:23.288Z,3.20
2019-01-08T23:38:54.975Z,2.65
2019-01-08T23:41:26.430Z,2.58
2019-01-08T23:43:57.826Z,2.60
2019-01-08T23:46:29.275Z,3.25
2019-01-08T23:49:00.724Z,2.40
2019-01-08T23:51:33.276Z,2.30
2019-01-08T23:54:04.636Z,2.42
2019-01-08T23:56:37.074Z,2.60
2019-01-08T23:59:09.446Z,2.70
